sensor_id;sensor_type;location;lat;lon;timestamp;P1;durP1;ratioP1;P2;durP2;ratioP2
33459;SDS011;19795;53.160;6.612;2023-03-23T04:45:41;5.20;;;3.20;;
33459;SDS011;19795;53.160;6.612;2023-03-23T04:51:25;7.07;;;3.08;;
33459;SDS011;19795;53.160;6.612;2023-03-23T04:53:52;7.13;;;2.90;;
33459;SDS011;19795;53.160;6.612;2023-03-23T04:56:18;6.78;;;3.15;;
33459;SDS011;19795;53.160;6.612;2023-03-23T04:58:44;6.88;;;3.47;;
33459;SDS011;19795;53.160;6.612;2023-03-23T05:01:10;9.73;;;3.53;;
33459;SDS011;19795;53.160;6.612;2023-03-23T05:03:39;7.60;;;3.45;;
33459;SDS011;19795;53.160;6.612;2023-03-23T05:06:05;5.55;;;3.53;;
33459;SDS011;19795;53.160;6.612;2023-03-23T05:08:31;8.65;;;3.55;;
33459;SDS011;19795;53.160;6.612;2023-03-23T05:10:58;9.13;;;4.43;;
33459;SDS011;19795;53.160;6.612;2023-03-23T05:13:25;11.48;;;5.13;;
33459;SDS011;19795;53.160;6.612;2023-03-23T05:15:52;8.80;;;4.75;;
33459;SDS011;19795;53.160;6.612;2023-03-23T05:18:17;8.55;;;4.43;;
33459;SDS011;19795;53.160;6.612;2023-03-23T05:20:45;9.98;;;4.90;;
33459;SDS011;19795;53.160;6.612;2023-03-23T05:23:11;10.50;;;4.43;;
33459;SDS011;19795;53.160;6.612;2023-03-23T05:25:38;7.10;;;3.67;;
33459;SDS011;19795;53.160;6.612;2023-03-23T05:28:07;9.40;;;4.40;;
33459;SDS011;19795;53.160;6.612;2023-03-23T05:30:37;9.02;;;4.47;;
33459;SDS011;19795;53.160;6.612;2023-03-23T05:33:04;12.75;;;3.75;;
33459;SDS011;19795;53.160;6.612;2023-03-23T05:35:30;10.65;;;3.80;;
33459;SDS011;19795;53.160;6.612;2023-03-23T05:37:57;10.20;;;3.55;;
33459;SDS011;19795;53.160;6.612;2023-03-23T05:40:23;11.48;;;3.53;;
33459;SDS011;19795;53.160;6.612;2023-03-23T05:42:51;12.25;;;4.30;;
33459;SDS011;19795;53.160;6.612;2023-03-23T05:45:17;14.07;;;4.22;;
33459;SDS011;19795;53.160;6.612;2023-03-23T05:47:43;15.27;;;3.53;;
33459;SDS011;19795;53.160;6.612;2023-03-23T05:50:09;11.63;;;3.55;;
33459;SDS011;19795;53.160;6.612;2023-03-23T05:52:37;9.90;;;3.45;;
33459;SDS011;19795;53.160;6.612;2023-03-23T05:55:03;14.88;;;3.88;;
33459;SDS011;19795;53.160;6.612;2023-03-23T05:57:30;16.08;;;4.55;;
33459;SDS011;19795;53.160;6.612;2023-03-23T05:59:56;11.32;;;3.88;;
33459;SDS011;19795;53.160;6.612;2023-03-23T06:02:23;13.32;;;3.58;;
33459;SDS011;19795;53.160;6.612;2023-03-23T06:04:50;19.08;;;4.28;;
33459;SDS011;19795;53.160;6.612;2023-03-23T06:07:22;19.70;;;4.15;;
33459;SDS011;19795;53.160;6.612;2023-03-23T06:09:51;17.00;;;3.55;;
33459;SDS011;19795;53.160;6.612;2023-03-23T06:12:19;16.40;;;3.85;;
33459;SDS011;19795;53.160;6.612;2023-03-23T06:14:45;14.23;;;3.90;;
33459;SDS011;19795;53.160;6.612;2023-03-23T06:17:15;14.20;;;3.30;;
33459;SDS011;19795;53.160;6.612;2023-03-23T06:19:42;14.95;;;3.97;;
33459;SDS011;19795;53.160;6.612;2023-03-23T06:22:10;20.38;;;3.90;;
33459;SDS011;19795;53.160;6.612;2023-03-23T06:24:36;17.67;;;3.47;;
33459;SDS011;19795;53.160;6.612;2023-03-23T06:27:02;16.33;;;3.60;;
33459;SDS011;19795;53.160;6.612;2023-03-23T06:29:28;14.70;;;3.78;;
33459;SDS011;19795;53.160;6.612;2023-03-23T06:31:56;14.50;;;3.15;;
33459;SDS011;19795;53.160;6.612;2023-03-23T06:34:25;14.88;;;3.70;;
33459;SDS011;19795;53.160;6.612;2023-03-23T06:36:51;15.40;;;3.05;;
33459;SDS011;19795;53.160;6.612;2023-03-23T06:39:17;14.63;;;3.10;;
33459;SDS011;19795;53.160;6.612;2023-03-23T06:41:43;12.93;;;2.95;;
33459;SDS011;19795;53.160;6.612;2023-03-23T06:44:08;14.35;;;3.30;;
33459;SDS011;19795;53.160;6.612;2023-03-23T06:46:38;16.13;;;3.40;;
33459;SDS011;19795;53.160;6.612;2023-03-23T06:49:04;11.82;;;2.58;;
33459;SDS011;19795;53.160;6.612;2023-03-23T06:51:30;10.07;;;2.75;;
33459;SDS011;19795;53.160;6.612;2023-03-23T06:53:56;14.43;;;3.47;;
33459;SDS011;19795;53.160;6.612;2023-03-23T06:56:22;7.55;;;2.05;;
33459;SDS011;19795;53.160;6.612;2023-03-23T06:58:48;12.18;;;2.90;;
33459;SDS011;19795;53.160;6.612;2023-03-23T07:01:14;8.68;;;2.10;;
33459;SDS011;19795;53.160;6.612;2023-03-23T07:03:41;9.55;;;2.28;;
33459;SDS011;19795;53.160;6.612;2023-03-23T07:06:07;12.48;;;2.08;;
33459;SDS011;19795;53.160;6.612;2023-03-23T07:08:34;10.35;;;1.98;;
33459;SDS011;19795;53.160;6.612;2023-03-23T07:11:00;11.75;;;2.38;;
33459;SDS011;19795;53.160;6.612;2023-03-23T07:13:26;10.65;;;2.20;;
33459;SDS011;19795;53.160;6.612;2023-03-23T07:15:52;11.68;;;2.28;;
33459;SDS011;19795;53.160;6.612;2023-03-23T07:18:18;13.23;;;2.88;;
33459;SDS011;19795;53.160;6.612;2023-03-23T07:20:48;9.40;;;2.53;;
33459;SDS011;19795;53.160;6.612;2023-03-23T07:23:17;17.25;;;3.38;;
33459;SDS011;19795;53.160;6.612;2023-03-23T07:25:44;14.77;;;3.17;;
33459;SDS011;19795;53.160;6.612;2023-03-23T07:28:11;15.73;;;3.55;;
33459;SDS011;19795;53.160;6.612;2023-03-23T07:30:37;17.85;;;3.25;;
33459;SDS011;19795;53.160;6.612;2023-03-23T07:33:04;14.60;;;3.28;;
33459;SDS011;19795;53.160;6.612;2023-03-23T07:35:31;16.00;;;3.90;;
33459;SDS011;19795;53.160;6.612;2023-03-23T07:37:58;19.27;;;4.03;;
33459;SDS011;19795;53.160;6.612;2023-03-23T07:40:23;19.88;;;3.58;;
33459;SDS011;19795;53.160;6.612;2023-03-23T07:42:53;12.43;;;2.80;;
33459;SDS011;19795;53.160;6.612;2023-03-23T07:45:21;15.02;;;3.25;;
33459;SDS011;19795;53.160;6.612;2023-03-23T07:47:47;19.85;;;3.58;;
33459;SDS011;19795;53.160;6.612;2023-03-23T07:50:13;17.05;;;3.45;;
33459;SDS011;19795;53.160;6.612;2023-03-23T07:52:39;23.30;;;3.13;;
33459;SDS011;19795;53.160;6.612;2023-03-23T07:55:07;18.67;;;3.00;;
33459;SDS011;19795;53.160;6.612;2023-03-23T07:57:42;17.48;;;3.40;;
33459;SDS011;19795;53.160;6.612;2023-03-23T08:00:08;18.70;;;2.72;;
33459;SDS011;19795;53.160;6.612;2023-03-23T08:02:39;17.50;;;3.22;;
33459;SDS011;19795;53.160;6.612;2023-03-23T08:05:06;14.00;;;2.80;;
33459;SDS011;19795;53.160;6.612;2023-03-23T08:07:33;18.70;;;3.50;;
33459;SDS011;19795;53.160;6.612;2023-03-23T08:09:59;18.75;;;3.10;;
33459;SDS011;19795;53.160;6.612;2023-03-23T08:12:25;20.45;;;2.83;;
33459;SDS011;19795;53.160;6.612;2023-03-23T08:14:52;18.85;;;3.28;;
33459;SDS011;19795;53.160;6.612;2023-03-23T08:17:18;20.95;;;3.20;;
33459;SDS011;19795;53.160;6.612;2023-03-23T08:19:45;18.80;;;3.30;;
33459;SDS011;19795;53.160;6.612;2023-03-23T08:22:10;21.98;;;3.55;;
33459;SDS011;19795;53.160;6.612;2023-03-23T08:24:36;20.17;;;3.28;;
33459;SDS011;19795;53.160;6.612;2023-03-23T08:27:02;21.55;;;3.30;;
33459;SDS011;19795;53.160;6.612;2023-03-23T08:29:28;20.52;;;3.58;;
33459;SDS011;19795;53.160;6.612;2023-03-23T08:31:54;23.20;;;4.07;;
33459;SDS011;19795;53.160;6.612;2023-03-23T08:34:22;23.45;;;3.47;;
33459;SDS011;19795;53.160;6.612;2023-03-23T08:36:48;21.90;;;3.35;;
33459;SDS011;19795;53.160;6.612;2023-03-23T08:39:16;21.58;;;3.58;;
33459;SDS011;19795;53.160;6.612;2023-03-23T08:41:43;30.15;;;4.10;;
33459;SDS011;19795;53.160;6.612;2023-03-23T08:44:09;20.92;;;3.70;;
33459;SDS011;19795;53.160;6.612;2023-03-23T08:46:35;25.90;;;3.70;;
33459;SDS011;19795;53.160;6.612;2023-03-23T08:49:01;20.65;;;3.60;;
33459;SDS011;19795;53.160;6.612;2023-03-23T08:51:27;24.65;;;4.22;;
33459;SDS011;19795;53.160;6.612;2023-03-23T08:53:52;21.98;;;3.97;;
33459;SDS011;19795;53.160;6.612;2023-03-23T08:56:19;26.85;;;4.30;;
33459;SDS011;19795;53.160;6.612;2023-03-23T08:58:45;26.02;;;3.88;;
33459;SDS011;19795;53.160;6.612;2023-03-23T09:01:10;23.88;;;3.63;;
33459;SDS011;19795;53.160;6.612;2023-03-23T09:03:36;25.90;;;3.97;;
33459;SDS011;19795;53.160;6.612;2023-03-23T09:06:06;31.30;;;4.10;;
33459;SDS011;19795;53.160;6.612;2023-03-23T09:08:33;25.75;;;3.97;;
33459;SDS011;19795;53.160;6.612;2023-03-23T09:11:04;24.92;;;3.60;;
33459;SDS011;19795;53.160;6.612;2023-03-23T09:13:32;23.65;;;4.20;;
33459;SDS011;19795;53.160;6.612;2023-03-23T09:15:58;25.67;;;4.30;;
33459;SDS011;19795;53.160;6.612;2023-03-23T09:18:24;18.02;;;3.72;;
33459;SDS011;19795;53.160;6.612;2023-03-23T09:20:50;27.52;;;4.55;;
33459;SDS011;19795;53.160;6.612;2023-03-23T09:23:18;26.13;;;4.82;;
33459;SDS011;19795;53.160;6.612;2023-03-23T09:25:45;27.10;;;4.25;;
33459;SDS011;19795;53.160;6.612;2023-03-23T09:28:11;33.65;;;4.47;;
33459;SDS011;19795;53.160;6.612;2023-03-23T09:30:39;32.88;;;4.18;;
33459;SDS011;19795;53.160;6.612;2023-03-23T09:33:06;27.70;;;3.97;;
33459;SDS011;19795;53.160;6.612;2023-03-23T09:35:33;21.60;;;3.60;;
33459;SDS011;19795;53.160;6.612;2023-03-23T09:38:00;26.20;;;4.07;;
33459;SDS011;19795;53.160;6.612;2023-03-23T09:40:38;23.27;;;3.70;;
33459;SDS011;19795;53.160;6.612;2023-03-23T09:43:19;32.90;;;4.18;;
33459;SDS011;19795;53.160;6.612;2023-03-23T09:49:17;23.50;;;3.80;;
33459;SDS011;19795;53.160;6.612;2023-03-23T09:53:59;24.33;;;3.72;;
33459;SDS011;19795;53.160;6.612;2023-03-23T09:56:30;22.25;;;3.70;;
33459;SDS011;19795;53.160;6.612;2023-03-23T09:59:05;26.70;;;3.40;;
33459;SDS011;19795;53.160;6.612;2023-03-23T10:01:56;23.98;;;4.18;;
33459;SDS011;19795;53.160;6.612;2023-03-23T10:07:20;20.13;;;3.78;;
33459;SDS011;19795;53.160;6.612;2023-03-23T10:09:52;20.83;;;3.45;;
33459;SDS011;19795;53.160;6.612;2023-03-23T10:17:33;21.73;;;3.75;;
33459;SDS011;19795;53.160;6.612;2023-03-23T10:23:13;17.60;;;3.03;;
33459;SDS011;19795;53.160;6.612;2023-03-23T10:25:51;16.63;;;3.33;;
33459;SDS011;19795;53.160;6.612;2023-03-23T10:28:36;21.33;;;3.22;;
33459;SDS011;19795;53.160;6.612;2023-03-23T10:31:05;21.83;;;3.38;;
33459;SDS011;19795;53.160;6.612;2023-03-23T10:36:16;27.33;;;3.70;;
33459;SDS011;19795;53.160;6.612;2023-03-23T10:41:26;22.83;;;3.58;;
33459;SDS011;19795;53.160;6.612;2023-03-23T10:43:52;21.00;;;3.20;;
33459;SDS011;19795;53.160;6.612;2023-03-23T10:46:26;22.98;;;3.35;;
33459;SDS011;19795;53.160;6.612;2023-03-23T10:49:28;20.58;;;2.88;;
33459;SDS011;19795;53.160;6.612;2023-03-23T10:52:09;19.92;;;3.00;;
33459;SDS011;19795;53.160;6.612;2023-03-23T10:54:51;16.25;;;2.90;;
33459;SDS011;19795;53.160;6.612;2023-03-23T10:57:23;17.45;;;3.28;;
33459;SDS011;19795;53.160;6.612;2023-03-23T10:59:58;17.92;;;2.60;;
33459;SDS011;19795;53.160;6.612;2023-03-23T11:02:31;15.25;;;2.85;;
33459;SDS011;19795;53.160;6.612;2023-03-23T11:05:01;22.42;;;3.15;;
33459;SDS011;19795;53.160;6.612;2023-03-23T11:07:31;16.63;;;2.50;;
33459;SDS011;19795;53.160;6.612;2023-03-23T11:10:07;17.02;;;3.03;;
33459;SDS011;19795;53.160;6.612;2023-03-23T11:12:44;21.45;;;3.10;;
33459;SDS011;19795;53.160;6.612;2023-03-23T11:15:23;19.20;;;2.80;;
33459;SDS011;19795;53.160;6.612;2023-03-23T11:18:02;16.75;;;2.97;;
33459;SDS011;19795;53.160;6.612;2023-03-23T11:20:34;16.77;;;2.60;;
33459;SDS011;19795;53.160;6.612;2023-03-23T11:28:53;14.25;;;3.28;;
33459;SDS011;19795;53.160;6.612;2023-03-23T11:31:24;19.13;;;2.40;;
33459;SDS011;19795;53.160;6.612;2023-03-23T11:34:01;12.25;;;2.55;;
33459;SDS011;19795;53.160;6.612;2023-03-23T11:36:42;13.63;;;2.58;;
33459;SDS011;19795;53.160;6.612;2023-03-23T11:41:52;14.40;;;2.72;;
33459;SDS011;19795;53.160;6.612;2023-03-23T11:44:22;13.75;;;3.15;;
33459;SDS011;19795;53.160;6.612;2023-03-23T11:52:41;12.60;;;2.38;;
33459;SDS011;19795;53.160;6.612;2023-03-23T11:55:21;11.52;;;2.42;;
33459;SDS011;19795;53.160;6.612;2023-03-23T11:57:50;15.48;;;2.38;;
33459;SDS011;19795;53.160;6.612;2023-03-23T12:00:21;11.63;;;2.20;;
33459;SDS011;19795;53.160;6.612;2023-03-23T12:05:40;14.07;;;2.40;;
33459;SDS011;19795;53.160;6.612;2023-03-23T12:11:05;11.93;;;2.20;;
33459;SDS011;19795;53.160;6.612;2023-03-23T12:16:20;12.55;;;1.98;;
33459;SDS011;19795;53.160;6.612;2023-03-23T12:19:08;15.27;;;2.30;;
33459;SDS011;19795;53.160;6.612;2023-03-23T12:43:47;14.80;;;2.50;;
33459;SDS011;19795;53.160;6.612;2023-03-23T12:49:10;13.60;;;2.15;;
33459;SDS011;19795;53.160;6.612;2023-03-23T12:54:21;13.40;;;2.35;;
33459;SDS011;19795;53.160;6.612;2023-03-23T13:02:21;17.67;;;2.30;;
33459;SDS011;19795;53.160;6.612;2023-03-23T13:05:04;9.50;;;1.88;;
33459;SDS011;19795;53.160;6.612;2023-03-23T13:07:39;8.82;;;2.42;;
33459;SDS011;19795;53.160;6.612;2023-03-23T13:12:47;11.95;;;2.00;;
33459;SDS011;19795;53.160;6.612;2023-03-23T13:15:17;10.25;;;2.10;;
33459;SDS011;19795;53.160;6.612;2023-03-23T13:18:19;15.20;;;2.20;;
33459;SDS011;19795;53.160;6.612;2023-03-23T13:21:01;11.85;;;1.90;;
33459;SDS011;19795;53.160;6.612;2023-03-23T13:23:44;13.30;;;2.08;;
33459;SDS011;19795;53.160;6.612;2023-03-23T13:26:13;17.88;;;2.38;;
33459;SDS011;19795;53.160;6.612;2023-03-23T13:29:06;16.33;;;2.40;;
33459;SDS011;19795;53.160;6.612;2023-03-23T13:31:49;20.67;;;2.70;;
33459;SDS011;19795;53.160;6.612;2023-03-23T13:34:30;18.00;;;2.88;;
33459;SDS011;19795;53.160;6.612;2023-03-23T13:37:08;12.73;;;2.72;;
33459;SDS011;19795;53.160;6.612;2023-03-23T13:39:51;15.95;;;2.80;;
33459;SDS011;19795;53.160;6.612;2023-03-23T13:50:10;11.57;;;2.33;;
33459;SDS011;19795;53.160;6.612;2023-03-23T13:52:54;18.30;;;2.88;;
33459;SDS011;19795;53.160;6.612;2023-03-23T14:01:17;17.17;;;2.45;;
33459;SDS011;19795;53.160;6.612;2023-03-23T14:03:49;11.02;;;2.30;;
33459;SDS011;19795;53.160;6.612;2023-03-23T14:06:19;17.58;;;2.67;;
33459;SDS011;19795;53.160;6.612;2023-03-23T14:08:50;12.85;;;2.03;;
33459;SDS011;19795;53.160;6.612;2023-03-23T14:11:23;15.57;;;2.70;;
33459;SDS011;19795;53.160;6.612;2023-03-23T14:14:12;12.23;;;2.47;;
33459;SDS011;19795;53.160;6.612;2023-03-23T14:16:43;14.07;;;2.25;;
33459;SDS011;19795;53.160;6.612;2023-03-23T14:21:58;17.20;;;2.80;;
33459;SDS011;19795;53.160;6.612;2023-03-23T14:24:31;19.75;;;2.67;;
33459;SDS011;19795;53.160;6.612;2023-03-23T14:29:46;17.35;;;2.53;;
33459;SDS011;19795;53.160;6.612;2023-03-23T14:32:22;13.27;;;2.10;;
33459;SDS011;19795;53.160;6.612;2023-03-23T14:34:51;15.48;;;2.85;;
33459;SDS011;19795;53.160;6.612;2023-03-23T14:37:17;14.30;;;1.90;;
33459;SDS011;19795;53.160;6.612;2023-03-23T14:39:47;12.82;;;2.40;;
33459;SDS011;19795;53.160;6.612;2023-03-23T14:42:20;15.35;;;2.63;;
33459;SDS011;19795;53.160;6.612;2023-03-23T14:44:55;11.32;;;2.40;;
33459;SDS011;19795;53.160;6.612;2023-03-23T14:47:23;12.70;;;2.30;;
33459;SDS011;19795;53.160;6.612;2023-03-23T14:49:55;13.70;;;2.10;;
33459;SDS011;19795;53.160;6.612;2023-03-23T14:52:24;14.18;;;2.30;;
33459;SDS011;19795;53.160;6.612;2023-03-23T14:54:52;12.32;;;2.15;;
33459;SDS011;19795;53.160;6.612;2023-03-23T14:57:19;9.77;;;2.25;;
33459;SDS011;19795;53.160;6.612;2023-03-23T14:59:52;14.57;;;2.30;;
33459;SDS011;19795;53.160;6.612;2023-03-23T15:02:31;12.98;;;2.42;;
33459;SDS011;19795;53.160;6.612;2023-03-23T15:05:09;18.20;;;2.20;;
33459;SDS011;19795;53.160;6.612;2023-03-23T15:07:41;12.52;;;2.20;;
33459;SDS011;19795;53.160;6.612;2023-03-23T15:10:14;11.10;;;2.17;;
33459;SDS011;19795;53.160;6.612;2023-03-23T15:12:44;9.30;;;1.70;;
33459;SDS011;19795;53.160;6.612;2023-03-23T15:15:16;14.02;;;2.22;;
33459;SDS011;19795;53.160;6.612;2023-03-23T15:17:47;10.60;;;2.17;;
33459;SDS011;19795;53.160;6.612;2023-03-23T15:20:21;11.57;;;2.15;;
33459;SDS011;19795;53.160;6.612;2023-03-23T15:23:14;7.55;;;1.42;;
33459;SDS011;19795;53.160;6.612;2023-03-23T15:25:47;13.82;;;2.10;;
33459;SDS011;19795;53.160;6.612;2023-03-23T15:28:19;8.63;;;1.80;;
33459;SDS011;19795;53.160;6.612;2023-03-23T15:30:47;12.75;;;2.30;;
33459;SDS011;19795;53.160;6.612;2023-03-23T15:33:13;6.78;;;2.05;;
33459;SDS011;19795;53.160;6.612;2023-03-23T15:35:46;10.90;;;1.90;;
33459;SDS011;19795;53.160;6.612;2023-03-23T15:38:20;12.68;;;1.80;;
33459;SDS011;19795;53.160;6.612;2023-03-23T15:41:00;11.85;;;1.85;;
33459;SDS011;19795;53.160;6.612;2023-03-23T15:43:33;11.75;;;2.25;;
33459;SDS011;19795;53.160;6.612;2023-03-23T15:46:01;9.00;;;1.65;;
33459;SDS011;19795;53.160;6.612;2023-03-23T15:48:52;8.18;;;1.80;;
33459;SDS011;19795;53.160;6.612;2023-03-23T15:51:27;9.95;;;2.00;;
33459;SDS011;19795;53.160;6.612;2023-03-23T15:53:55;11.55;;;2.10;;
33459;SDS011;19795;53.160;6.612;2023-03-23T15:56:22;16.65;;;2.65;;
33459;SDS011;19795;53.160;6.612;2023-03-23T15:58:49;12.80;;;1.88;;
33459;SDS011;19795;53.160;6.612;2023-03-23T16:01:19;20.70;;;2.50;;
33459;SDS011;19795;53.160;6.612;2023-03-23T16:06:23;13.68;;;2.47;;
33459;SDS011;19795;53.160;6.612;2023-03-23T16:08:51;15.93;;;2.97;;
33459;SDS011;19795;53.160;6.612;2023-03-23T16:11:20;15.40;;;2.47;;
33459;SDS011;19795;53.160;6.612;2023-03-23T16:13:48;15.30;;;2.30;;
33459;SDS011;19795;53.160;6.612;2023-03-23T16:16:17;11.52;;;2.20;;
33459;SDS011;19795;53.160;6.612;2023-03-23T16:18:52;15.75;;;2.53;;
33459;SDS011;19795;53.160;6.612;2023-03-23T16:21:18;15.73;;;2.15;;
33459;SDS011;19795;53.160;6.612;2023-03-23T16:23:43;14.75;;;2.42;;
33459;SDS011;19795;53.160;6.612;2023-03-23T16:26:10;17.55;;;2.95;;
33459;SDS011;19795;53.160;6.612;2023-03-23T16:28:37;17.80;;;2.78;;
33459;SDS011;19795;53.160;6.612;2023-03-23T16:31:03;14.05;;;2.72;;
33459;SDS011;19795;53.160;6.612;2023-03-23T16:33:29;12.77;;;2.33;;
33459;SDS011;19795;53.160;6.612;2023-03-23T16:35:54;15.05;;;2.25;;
33459;SDS011;19795;53.160;6.612;2023-03-23T16:38:22;14.73;;;2.60;;
33459;SDS011;19795;53.160;6.612;2023-03-23T16:40:48;16.30;;;2.47;;
33459;SDS011;19795;53.160;6.612;2023-03-23T16:46:15;22.70;;;3.10;;
33459;SDS011;19795;53.160;6.612;2023-03-23T16:48:41;15.23;;;2.63;;
33459;SDS011;19795;53.160;6.612;2023-03-23T16:51:07;16.05;;;2.58;;
33459;SDS011;19795;53.160;6.612;2023-03-23T16:53:34;16.02;;;2.60;;
33459;SDS011;19795;53.160;6.612;2023-03-23T16:56:01;19.35;;;3.63;;
33459;SDS011;19795;53.160;6.612;2023-03-23T16:58:26;12.88;;;2.30;;
33459;SDS011;19795;53.160;6.612;2023-03-23T17:00:52;16.35;;;2.47;;
33459;SDS011;19795;53.160;6.612;2023-03-23T17:03:19;17.38;;;2.55;;
33459;SDS011;19795;53.160;6.612;2023-03-23T17:05:49;17.48;;;2.72;;
33459;SDS011;19795;53.160;6.612;2023-03-23T17:08:16;16.00;;;2.08;;
33459;SDS011;19795;53.160;6.612;2023-03-23T17:10:43;23.83;;;2.85;;
33459;SDS011;19795;53.160;6.612;2023-03-23T17:13:09;14.95;;;2.78;;
33459;SDS011;19795;53.160;6.612;2023-03-23T17:15:37;15.15;;;2.38;;
33459;SDS011;19795;53.160;6.612;2023-03-23T17:18:20;17.40;;;2.60;;
33459;SDS011;19795;53.160;6.612;2023-03-23T17:20:46;18.75;;;2.70;;
33459;SDS011;19795;53.160;6.612;2023-03-23T17:23:11;22.20;;;2.70;;
33459;SDS011;19795;53.160;6.612;2023-03-23T17:25:37;14.85;;;2.35;;
33459;SDS011;19795;53.160;6.612;2023-03-23T17:28:03;21.50;;;2.85;;
33459;SDS011;19795;53.160;6.612;2023-03-23T17:30:28;19.75;;;2.95;;
33459;SDS011;19795;53.160;6.612;2023-03-23T17:32:56;13.80;;;2.20;;
33459;SDS011;19795;53.160;6.612;2023-03-23T17:35:22;16.33;;;2.33;;
33459;SDS011;19795;53.160;6.612;2023-03-23T17:37:47;22.10;;;2.90;;
33459;SDS011;19795;53.160;6.612;2023-03-23T17:40:13;14.80;;;2.80;;
33459;SDS011;19795;53.160;6.612;2023-03-23T17:42:39;19.13;;;2.60;;
33459;SDS011;19795;53.160;6.612;2023-03-23T17:45:06;20.85;;;2.67;;
33459;SDS011;19795;53.160;6.612;2023-03-23T17:47:33;15.93;;;2.42;;
33459;SDS011;19795;53.160;6.612;2023-03-23T17:49:59;16.88;;;2.67;;
33459;SDS011;19795;53.160;6.612;2023-03-23T17:52:24;16.67;;;2.30;;
33459;SDS011;19795;53.160;6.612;2023-03-23T17:54:50;18.95;;;2.55;;
33459;SDS011;19795;53.160;6.612;2023-03-23T17:57:17;19.83;;;2.85;;
33459;SDS011;19795;53.160;6.612;2023-03-23T17:59:44;15.93;;;2.53;;
33459;SDS011;19795;53.160;6.612;2023-03-23T18:02:10;16.80;;;2.65;;
33459;SDS011;19795;53.160;6.612;2023-03-23T18:04:37;13.77;;;2.92;;
33459;SDS011;19795;53.160;6.612;2023-03-23T18:07:04;17.40;;;2.50;;
33459;SDS011;19795;53.160;6.612;2023-03-23T18:09:29;13.82;;;2.58;;
33459;SDS011;19795;53.160;6.612;2023-03-23T18:11:55;17.15;;;3.00;;
33459;SDS011;19795;53.160;6.612;2023-03-23T18:14:21;18.20;;;2.97;;
33459;SDS011;19795;53.160;6.612;2023-03-23T18:16:47;19.70;;;3.67;;
33459;SDS011;19795;53.160;6.612;2023-03-23T18:19:12;14.00;;;3.15;;
33459;SDS011;19795;53.160;6.612;2023-03-23T18:21:38;23.92;;;3.45;;
33459;SDS011;19795;53.160;6.612;2023-03-23T18:24:04;17.58;;;2.70;;
33459;SDS011;19795;53.160;6.612;2023-03-23T18:26:30;15.07;;;2.53;;
33459;SDS011;19795;53.160;6.612;2023-03-23T18:28:56;16.92;;;2.45;;
33459;SDS011;19795;53.160;6.612;2023-03-23T18:31:21;17.77;;;3.15;;
33459;SDS011;19795;53.160;6.612;2023-03-23T18:33:47;17.40;;;2.95;;
33459;SDS011;19795;53.160;6.612;2023-03-23T18:36:15;13.93;;;2.70;;
33459;SDS011;19795;53.160;6.612;2023-03-23T18:38:43;16.27;;;2.63;;
33459;SDS011;19795;53.160;6.612;2023-03-23T18:41:10;13.60;;;2.45;;
33459;SDS011;19795;53.160;6.612;2023-03-23T18:43:37;16.58;;;3.17;;
33459;SDS011;19795;53.160;6.612;2023-03-23T18:46:03;15.10;;;2.47;;
33459;SDS011;19795;53.160;6.612;2023-03-23T18:48:29;16.38;;;2.45;;
33459;SDS011;19795;53.160;6.612;2023-03-23T18:50:56;15.65;;;3.10;;
33459;SDS011;19795;53.160;6.612;2023-03-23T18:53:23;11.50;;;2.47;;
33459;SDS011;19795;53.160;6.612;2023-03-23T18:55:50;12.85;;;2.67;;
33459;SDS011;19795;53.160;6.612;2023-03-23T18:58:16;9.75;;;2.30;;
33459;SDS011;19795;53.160;6.612;2023-03-23T19:00:43;14.43;;;2.70;;
33459;SDS011;19795;53.160;6.612;2023-03-23T19:03:09;13.30;;;3.10;;
33459;SDS011;19795;53.160;6.612;2023-03-23T19:05:36;11.77;;;2.72;;
33459;SDS011;19795;53.160;6.612;2023-03-23T19:08:04;11.90;;;2.88;;
33459;SDS011;19795;53.160;6.612;2023-03-23T19:10:30;11.10;;;2.95;;
33459;SDS011;19795;53.160;6.612;2023-03-23T19:13:04;9.38;;;2.70;;
33459;SDS011;19795;53.160;6.612;2023-03-23T19:15:37;8.98;;;2.22;;
33459;SDS011;19795;53.160;6.612;2023-03-23T19:18:06;8.73;;;2.35;;
33459;SDS011;19795;53.160;6.612;2023-03-23T19:20:32;12.70;;;2.72;;
33459;SDS011;19795;53.160;6.612;2023-03-23T19:22:58;15.25;;;2.65;;
33459;SDS011;19795;53.160;6.612;2023-03-23T19:25:24;8.35;;;2.10;;
33459;SDS011;19795;53.160;6.612;2023-03-23T19:27:50;6.95;;;2.50;;
33459;SDS011;19795;53.160;6.612;2023-03-23T19:30:16;9.68;;;2.85;;
33459;SDS011;19795;53.160;6.612;2023-03-23T19:32:43;11.07;;;2.65;;
33459;SDS011;19795;53.160;6.612;2023-03-23T19:35:09;8.57;;;2.10;;
33459;SDS011;19795;53.160;6.612;2023-03-23T19:37:36;7.30;;;2.30;;
33459;SDS011;19795;53.160;6.612;2023-03-23T19:40:02;10.48;;;2.45;;
33459;SDS011;19795;53.160;6.612;2023-03-23T19:42:30;8.77;;;2.58;;
33459;SDS011;19795;53.160;6.612;2023-03-23T19:44:56;12.90;;;3.08;;
33459;SDS011;19795;53.160;6.612;2023-03-23T19:47:23;10.75;;;2.70;;
33459;SDS011;19795;53.160;6.612;2023-03-23T19:49:49;10.68;;;3.40;;
33459;SDS011;19795;53.160;6.612;2023-03-23T19:52:15;11.15;;;3.35;;
33459;SDS011;19795;53.160;6.612;2023-03-23T19:54:41;13.48;;;3.25;;
33459;SDS011;19795;53.160;6.612;2023-03-23T19:57:07;15.82;;;3.65;;
33459;SDS011;19795;53.160;6.612;2023-03-23T19:59:34;10.52;;;3.33;;
33459;SDS011;19795;53.160;6.612;2023-03-23T20:02:01;8.25;;;2.83;;
33459;SDS011;19795;53.160;6.612;2023-03-23T20:04:27;8.00;;;3.58;;
33459;SDS011;19795;53.160;6.612;2023-03-23T20:06:54;10.60;;;3.53;;
33459;SDS011;19795;53.160;6.612;2023-03-23T20:09:20;15.43;;;4.00;;
33459;SDS011;19795;53.160;6.612;2023-03-23T20:11:45;10.82;;;4.10;;
33459;SDS011;19795;53.160;6.612;2023-03-23T20:14:13;10.90;;;4.00;;
33459;SDS011;19795;53.160;6.612;2023-03-23T20:16:38;14.40;;;3.90;;
33459;SDS011;19795;53.160;6.612;2023-03-23T20:19:04;11.02;;;4.05;;
33459;SDS011;19795;53.160;6.612;2023-03-23T20:21:29;9.38;;;4.18;;
33459;SDS011;19795;53.160;6.612;2023-03-23T20:23:57;11.43;;;4.40;;
33459;SDS011;19795;53.160;6.612;2023-03-23T20:28:50;11.45;;;4.15;;
33459;SDS011;19795;53.160;6.612;2023-03-23T20:31:17;13.52;;;4.55;;
33459;SDS011;19795;53.160;6.612;2023-03-23T20:33:45;11.23;;;4.18;;
33459;SDS011;19795;53.160;6.612;2023-03-23T20:36:12;11.20;;;4.30;;
33459;SDS011;19795;53.160;6.612;2023-03-23T20:38:43;13.20;;;4.60;;
33459;SDS011;19795;53.160;6.612;2023-03-23T20:41:10;12.52;;;3.90;;
33459;SDS011;19795;53.160;6.612;2023-03-23T20:43:40;12.85;;;4.35;;
33459;SDS011;19795;53.160;6.612;2023-03-23T20:46:08;9.85;;;3.95;;
33459;SDS011;19795;53.160;6.612;2023-03-23T20:48:36;9.57;;;4.35;;
33459;SDS011;19795;53.160;6.612;2023-03-23T20:51:04;11.40;;;4.05;;
33459;SDS011;19795;53.160;6.612;2023-03-23T20:53:32;10.95;;;4.22;;
33459;SDS011;19795;53.160;6.612;2023-03-23T20:55:58;11.30;;;4.00;;
33459;SDS011;19795;53.160;6.612;2023-03-23T20:58:26;11.27;;;4.70;;
33459;SDS011;19795;53.160;6.612;2023-03-23T21:00:54;13.50;;;4.15;;
33459;SDS011;19795;53.160;6.612;2023-03-23T21:03:25;10.35;;;4.03;;
33459;SDS011;19795;53.160;6.612;2023-03-23T21:05:52;10.68;;;3.90;;
33459;SDS011;19795;53.160;6.612;2023-03-23T21:08:18;11.25;;;3.75;;
